createdAt,value
2019-02-04T00:00:35.752Z,2.70
2019-02-04T00:01:44.046Z,2.70
2019-02-04T00:02:50.346Z,2.65
2019-02-04T00:03:57.516Z,2.61
2019-02-04T00:05:04.476Z,2.63
2019-02-04T00:06:11.526Z,2.61
2019-02-04T00:07:18.528Z,2.63
2019-02-04T00:08:25.316Z,2.61
2019-02-04T00:09:32.378Z,2.62
2019-02-04T00:10:39.288Z,2.63
2019-02-04T00:11:45.926Z,2.63
2019-02-04T00:12:52.735Z,2.61
2019-02-04T00:14:00.233Z,2.66
2019-02-04T00:15:09.668Z,2.69
2019-02-04T00:16:16.237Z,2.70
2019-02-04T00:17:22.096Z,2.71
2019-02-04T00:18:28.238Z,2.69
2019-02-04T00:19:34.399Z,2.71
2019-02-04T00:20:40.268Z,2.70
2019-02-04T00:21:46.177Z,2.71
2019-02-04T00:22:52.319Z,2.70
2019-02-04T00:23:58.076Z,2.69
2019-02-04T00:25:04.457Z,2.70
2019-02-04T00:26:10.099Z,2.67
2019-02-04T00:27:16.001Z,2.66
2019-02-04T00:28:21.931Z,2.69
2019-02-04T00:29:28.949Z,2.68
2019-02-04T00:30:36.846Z,2.66
2019-02-04T00:31:43.666Z,2.66
2019-02-04T00:32:50.828Z,2.66
2019-02-04T00:33:58.173Z,2.67
2019-02-04T00:35:05.477Z,2.72
2019-02-04T00:36:12.634Z,2.75
2019-02-04T00:37:20.026Z,2.72
2019-02-04T00:38:26.290Z,2.74
2019-02-04T00:39:32.608Z,2.74
2019-02-04T00:40:39.060Z,2.74
2019-02-04T00:41:45.443Z,2.75
2019-02-04T00:42:53.799Z,2.77
2019-02-04T00:44:00.886Z,2.77
2019-02-04T00:45:09.290Z,2.76
2019-02-04T00:46:16.526Z,2.76
2019-02-04T00:47:22.688Z,2.73
2019-02-04T00:48:28.445Z,2.72
2019-02-04T00:49:34.485Z,2.75
2019-02-04T00:50:40.533Z,2.73
2019-02-04T00:51:46.585Z,2.70
2019-02-04T00:52:52.734Z,2.69
2019-02-04T00:53:58.985Z,2.66
2019-02-04T00:55:10.758Z,2.66
2019-02-04T00:56:17.301Z,2.67
2019-02-04T00:57:23.041Z,2.67
2019-02-04T00:58:29.084Z,2.69
2019-02-04T00:59:36.178Z,2.73
2019-02-04T01:00:42.127Z,2.73
2019-02-04T01:01:48.197Z,2.73
2019-02-04T01:02:54.219Z,2.76
2019-02-04T01:04:00.061Z,2.75
2019-02-04T01:05:07.236Z,2.75
2019-02-04T01:06:13.126Z,2.76
2019-02-04T01:07:19.826Z,2.75
2019-02-04T01:08:26.957Z,2.76
2019-02-04T01:09:33.261Z,2.73
2019-02-04T01:10:40.594Z,2.71
2019-02-04T01:11:47.431Z,2.70
2019-02-04T01:12:54.472Z,2.70
2019-02-04T01:14:02.998Z,2.71
2019-02-04T01:15:09.346Z,2.69
2019-02-04T01:16:16.823Z,2.68
2019-02-04T01:17:23.122Z,2.66
2019-02-04T01:18:28.927Z,2.68
2019-02-04T01:19:35.876Z,2.68
2019-02-04T01:20:41.854Z,2.71
2019-02-04T01:21:47.817Z,2.77
2019-02-04T01:22:54.446Z,2.78
2019-02-04T01:24:00.198Z,2.77
2019-02-04T01:25:08.534Z,2.78
2019-02-04T01:26:14.436Z,2.75
2019-02-04T01:27:20.284Z,2.72
2019-02-04T01:28:26.226Z,2.70
2019-02-04T01:29:32.295Z,2.69
2019-02-04T01:30:40.321Z,2.67
2019-02-04T01:31:48.282Z,2.64
2019-02-04T01:32:55.180Z,2.62
2019-02-04T01:34:02.613Z,2.59
2019-02-04T01:35:08.916Z,2.60
2019-02-04T01:36:15.668Z,2.59
2019-02-04T01:37:22.538Z,2.59
2019-02-04T01:38:30.766Z,2.57
2019-02-04T01:39:37.899Z,2.54
2019-02-04T01:40:46.376Z,2.52
2019-02-04T01:41:54.107Z,2.52
2019-02-04T01:43:01.634Z,2.52
2019-02-04T01:44:07.618Z,2.52
2019-02-04T01:45:13.773Z,2.53
2019-02-04T01:46:20.256Z,2.53
2019-02-04T01:47:26.243Z,2.50
2019-02-04T01:48:31.979Z,2.51
2019-02-04T01:49:37.832Z,2.49
2019-02-04T01:50:44.614Z,2.51
2019-02-04T01:51:50.318Z,2.52
2019-02-04T01:52:56.074Z,2.56
2019-02-04T01:54:02.707Z,2.52
2019-02-04T01:55:12.617Z,2.49
2019-02-04T01:56:18.534Z,2.46
2019-02-04T01:57:24.140Z,2.45
2019-02-04T01:58:31.248Z,2.44
2019-02-04T01:59:37.854Z,2.43
2019-02-04T02:00:44.344Z,2.40
2019-02-04T02:01:51.334Z,2.39
2019-02-04T02:02:58.070Z,2.38
2019-02-04T02:04:04.884Z,2.40
2019-02-04T02:05:12.230Z,2.41
2019-02-04T02:06:19.339Z,2.38
2019-02-04T02:07:26.761Z,2.42
2019-02-04T02:08:33.267Z,2.43
2019-02-04T02:09:39.915Z,2.42
2019-02-04T02:10:46.874Z,2.45
2019-02-04T02:11:53.949Z,2.43
2019-02-04T02:13:01.400Z,2.41
2019-02-04T02:14:08.335Z,2.38
2019-02-04T02:15:15.542Z,2.40
2019-02-04T02:16:22.305Z,2.41
2019-02-04T02:17:27.970Z,2.42
2019-02-04T02:18:34.127Z,2.42
2019-02-04T02:19:40.524Z,2.42
2019-02-04T02:20:46.359Z,2.40
2019-02-04T02:21:52.676Z,2.38
2019-02-04T02:22:59.007Z,2.38
2019-02-04T02:24:04.791Z,2.36
2019-02-04T02:25:10.516Z,2.35
2019-02-04T02:26:16.743Z,2.37
2019-02-04T02:27:22.501Z,2.35
2019-02-04T02:28:28.441Z,2.35
2019-02-04T02:29:35.702Z,2.36
2019-02-04T02:30:43.024Z,2.36
2019-02-04T02:31:49.627Z,2.38
2019-02-04T02:32:56.991Z,2.36
2019-02-04T02:34:04.345Z,2.34
2019-02-04T02:35:10.986Z,2.36
2019-02-04T02:36:18.251Z,2.39
2019-02-04T02:37:25.943Z,2.40
2019-02-04T02:38:32.811Z,2.43
2019-02-04T02:39:39.956Z,2.42
2019-02-04T02:40:46.679Z,2.41
2019-02-04T02:41:53.831Z,2.41
2019-02-04T02:43:00.619Z,2.43
2019-02-04T02:44:09.809Z,2.41
2019-02-04T02:45:16.841Z,2.40
2019-02-04T02:46:24.840Z,2.39
2019-02-04T02:47:38.169Z,2.38
2019-02-04T02:48:38.769Z,2.33
2019-02-04T02:49:44.839Z,2.33
2019-02-04T02:50:51.750Z,2.28
2019-02-04T02:51:57.909Z,2.25
2019-02-04T02:53:04.049Z,2.23
2019-02-04T02:54:09.798Z,2.22
2019-02-04T02:55:19.844Z,2.24
2019-02-04T02:56:25.808Z,2.26
2019-02-04T02:57:31.712Z,2.27
2019-02-04T02:58:38.169Z,2.28
2019-02-04T02:59:45.570Z,2.28
2019-02-04T03:00:52.147Z,2.27
2019-02-04T03:01:58.714Z,2.27
2019-02-04T03:03:06.009Z,2.28
2019-02-04T03:04:13.483Z,2.27
2019-02-04T03:05:20.633Z,2.25
2019-02-04T03:06:27.704Z,2.26
2019-02-04T03:07:34.629Z,2.24
2019-02-04T03:08:40.942Z,2.24
2019-02-04T03:09:48.563Z,2.24
2019-02-04T03:10:55.266Z,2.23
2019-02-04T03:12:02.529Z,2.23
2019-02-04T03:13:10.846Z,2.20
2019-02-04T03:14:17.449Z,2.19
2019-02-04T03:15:24.146Z,2.18
2019-02-04T03:16:31.150Z,2.17
2019-02-04T03:17:37.077Z,2.18
2019-02-04T03:18:43.843Z,2.18
2019-02-04T03:19:49.491Z,2.19
2019-02-04T03:20:55.445Z,2.23
2019-02-04T03:22:01.161Z,2.23
2019-02-04T03:23:06.796Z,2.25
2019-02-04T03:24:13.250Z,2.27
2019-02-04T03:25:19.313Z,2.27
2019-02-04T03:26:25.048Z,2.27
2019-02-04T03:27:30.926Z,2.28
2019-02-04T03:28:38.117Z,2.29
2019-02-04T03:29:45.138Z,2.28
2019-02-04T03:30:52.226Z,2.27
2019-02-04T03:31:59.407Z,2.27
2019-02-04T03:33:07.157Z,2.25
2019-02-04T03:34:13.715Z,2.19
2019-02-04T03:35:21.109Z,2.15
2019-02-04T03:36:29.265Z,2.13
2019-02-04T03:37:36.477Z,2.09
2019-02-04T03:38:43.834Z,2.08
2019-02-04T03:39:50.294Z,2.06
2019-02-04T03:40:58.389Z,2.05
2019-02-04T03:42:06.197Z,2.02
2019-02-04T03:43:13.410Z,2.02
2019-02-04T03:44:20.659Z,2.01
2019-02-04T03:45:27.431Z,2.01
2019-02-04T03:46:34.260Z,2.02
2019-02-04T03:47:40.107Z,2.05
2019-02-04T03:48:45.874Z,2.03
2019-02-04T03:49:51.804Z,2.03
2019-02-04T03:50:57.973Z,2.00
2019-02-04T03:52:03.911Z,2.00
2019-02-04T03:53:09.655Z,2.02
2019-02-04T03:54:15.401Z,2.02
2019-02-04T03:55:21.342Z,2.04
2019-02-04T03:56:27.694Z,2.05
2019-02-04T03:57:33.614Z,2.06
2019-02-04T03:58:40.424Z,2.06
2019-02-04T03:59:47.897Z,2.10
2019-02-04T04:00:54.458Z,2.11
2019-02-04T04:02:01.174Z,2.11
2019-02-04T04:03:07.911Z,2.11
2019-02-04T04:04:14.398Z,2.13
2019-02-04T04:05:22.802Z,2.12
2019-02-04T04:06:30.412Z,2.13
2019-02-04T04:07:37.498Z,2.15
2019-02-04T04:08:44.564Z,2.13
2019-02-04T04:09:51.736Z,2.15
2019-02-04T04:10:58.422Z,2.20
2019-02-04T04:12:05.278Z,2.21
2019-02-04T04:13:12.256Z,2.22
2019-02-04T04:14:18.835Z,2.13
2019-02-04T04:15:25.894Z,2.25
2019-02-04T04:16:33.188Z,2.22
2019-02-04T04:17:39.702Z,2.25
2019-02-04T04:18:45.456Z,2.25
2019-02-04T04:19:52.249Z,2.23
2019-02-04T04:21:00.079Z,2.19
2019-02-04T04:22:06.559Z,2.18
2019-02-04T04:23:12.328Z,2.17
2019-02-04T04:24:18.306Z,2.17
2019-02-04T04:25:23.971Z,2.15
2019-02-04T04:26:30.057Z,2.15
2019-02-04T04:27:36.816Z,2.14
2019-02-04T04:28:43.509Z,2.12
2019-02-04T04:29:49.625Z,2.10
2019-02-04T04:30:56.448Z,2.09
2019-02-04T04:32:03.911Z,2.10
2019-02-04T04:33:10.350Z,2.11
2019-02-04T04:34:17.390Z,2.10
2019-02-04T04:35:25.037Z,2.10
2019-02-04T04:36:31.389Z,2.09
2019-02-04T04:37:37.793Z,2.08
2019-02-04T04:38:45.303Z,2.08
2019-02-04T04:39:52.510Z,2.06
2019-02-04T04:41:00.493Z,2.06
2019-02-04T04:42:08.240Z,2.07
2019-02-04T04:43:14.396Z,2.07
2019-02-04T04:44:22.915Z,2.04
2019-02-04T04:45:30.436Z,2.02
2019-02-04T04:46:37.234Z,1.99
2019-02-04T04:47:43.502Z,1.99
2019-02-04T04:48:49.244Z,1.99
2019-02-04T04:49:55.481Z,1.97
2019-02-04T04:51:02.321Z,1.94
2019-02-04T04:52:09.212Z,1.93
2019-02-04T04:53:15.178Z,1.90
2019-02-04T04:54:20.894Z,1.90
2019-02-04T04:55:27.994Z,1.85
2019-02-04T04:56:33.711Z,1.83
2019-02-04T04:57:40.164Z,1.83
2019-02-04T04:58:46.402Z,1.84
2019-02-04T04:59:53.604Z,1.83
2019-02-04T05:01:00.081Z,1.85
2019-02-04T05:02:06.361Z,1.84
2019-02-04T05:03:13.261Z,1.83
2019-02-04T05:04:20.381Z,1.86
2019-02-04T05:05:26.521Z,1.90
2019-02-04T05:06:34.485Z,1.93
2019-02-04T05:07:41.186Z,1.89
2019-02-04T05:08:48.227Z,1.90
2019-02-04T05:09:55.861Z,1.92
2019-02-04T05:11:02.291Z,1.94
2019-02-04T05:12:09.221Z,1.94
2019-02-04T05:13:15.502Z,1.91
2019-02-04T05:14:22.899Z,1.85
2019-02-04T05:15:30.503Z,1.81
2019-02-04T05:16:38.129Z,1.80
2019-02-04T05:17:43.784Z,1.80
2019-02-04T05:18:49.521Z,1.82
2019-02-04T05:19:55.578Z,1.82
2019-02-04T05:21:01.692Z,1.80
2019-02-04T05:22:07.890Z,1.81
2019-02-04T05:23:14.231Z,1.81
2019-02-04T05:24:19.953Z,1.83
2019-02-04T05:25:26.022Z,1.86
2019-02-04T05:26:32.604Z,1.87
2019-02-04T05:27:38.832Z,1.87
2019-02-04T05:28:45.622Z,1.90
2019-02-04T05:29:51.669Z,1.93
2019-02-04T05:30:58.532Z,1.96
2019-02-04T05:32:05.542Z,1.95
2019-02-04T05:33:12.369Z,1.94
2019-02-04T05:34:19.247Z,1.92
2019-02-04T05:35:26.045Z,1.93
2019-02-04T05:36:32.917Z,1.94
2019-02-04T05:37:39.313Z,1.92
2019-02-04T05:38:45.774Z,1.91
2019-02-04T05:39:52.337Z,1.88
2019-02-04T05:41:00.000Z,1.87
2019-02-04T05:42:06.824Z,1.87
2019-02-04T05:43:13.744Z,1.82
2019-02-04T05:44:20.683Z,1.81
2019-02-04T05:45:26.847Z,1.79
2019-02-04T05:46:33.717Z,1.77
2019-02-04T05:47:39.572Z,1.75
2019-02-04T05:48:49.355Z,1.76
2019-02-04T05:49:53.219Z,1.78
2019-02-04T05:50:59.272Z,1.79
2019-02-04T05:52:05.228Z,1.81
2019-02-04T05:53:11.039Z,1.76
2019-02-04T05:54:17.216Z,1.78
2019-02-04T05:55:23.567Z,1.80
2019-02-04T05:56:29.488Z,1.81
2019-02-04T05:57:35.540Z,1.82
2019-02-04T05:58:41.672Z,1.81
2019-02-04T05:59:48.156Z,1.83
2019-02-04T06:00:55.727Z,1.79
2019-02-04T06:02:03.611Z,1.77
2019-02-04T06:03:10.993Z,1.77
2019-02-04T06:04:17.694Z,1.77
2019-02-04T06:05:26.532Z,1.77
2019-02-04T06:06:33.475Z,1.78
2019-02-04T06:07:40.090Z,1.77
2019-02-04T06:08:46.450Z,1.77
2019-02-04T06:09:53.599Z,1.74
2019-02-04T06:11:00.020Z,1.78
2019-02-04T06:12:07.454Z,1.78
2019-02-04T06:13:14.043Z,1.80
2019-02-04T06:14:21.525Z,1.79
2019-02-04T06:15:28.811Z,1.80
2019-02-04T06:16:35.812Z,1.82
2019-02-04T06:17:41.777Z,1.83
2019-02-04T06:18:47.566Z,1.87
2019-02-04T06:19:54.342Z,1.87
2019-02-04T06:21:00.303Z,1.86
2019-02-04T06:22:06.016Z,1.86
2019-02-04T06:23:13.002Z,1.88
2019-02-04T06:24:18.934Z,1.86
2019-02-04T06:25:25.086Z,1.84
2019-02-04T06:26:30.863Z,1.85
2019-02-04T06:27:36.553Z,1.88
2019-02-04T06:28:42.375Z,1.86
2019-02-04T06:29:49.555Z,1.89
2019-02-04T06:30:55.833Z,1.92
2019-02-04T06:32:02.962Z,1.92
2019-02-04T06:33:10.793Z,1.89
2019-02-04T06:34:17.481Z,1.89
2019-02-04T06:35:27.938Z,1.87
2019-02-04T06:36:34.868Z,1.89
2019-02-04T06:37:41.425Z,1.90
2019-02-04T06:38:48.889Z,1.91
2019-02-04T06:39:56.043Z,1.94
2019-02-04T06:41:03.026Z,1.96
2019-02-04T06:42:10.593Z,1.97
2019-02-04T06:43:17.972Z,1.96
2019-02-04T06:44:24.406Z,1.97
2019-02-04T06:45:31.123Z,1.97
2019-02-04T06:46:37.535Z,1.97
2019-02-04T06:47:43.752Z,1.93
2019-02-04T06:48:50.182Z,1.90
2019-02-04T06:49:56.201Z,1.92
2019-02-04T06:51:02.955Z,1.91
2019-02-04T06:52:08.626Z,1.89
2019-02-04T06:53:15.332Z,1.87
2019-02-04T06:54:21.691Z,1.88
2019-02-04T06:55:33.776Z,1.83
2019-02-04T06:56:39.934Z,1.85
2019-02-04T06:57:45.982Z,1.86
2019-02-04T06:58:52.385Z,1.89
2019-02-04T06:59:58.065Z,1.90
2019-02-04T07:01:05.051Z,1.90
2019-02-04T07:02:11.858Z,1.92
2019-02-04T07:03:18.976Z,1.94
2019-02-04T07:04:25.718Z,1.96
2019-02-04T07:05:43.573Z,1.99
2019-02-04T07:06:41.093Z,2.03
2019-02-04T07:07:48.100Z,2.05
2019-02-04T07:08:54.306Z,2.05
2019-02-04T07:10:01.286Z,2.08
2019-02-04T07:11:08.043Z,2.07
2019-02-04T07:12:15.150Z,2.05
2019-02-04T07:13:22.345Z,2.06
2019-02-04T07:14:29.500Z,2.08
2019-02-04T07:15:36.158Z,2.12
2019-02-04T07:16:42.505Z,2.11
2019-02-04T07:17:48.392Z,2.11
2019-02-04T07:18:54.422Z,2.11
2019-02-04T07:20:00.653Z,2.11
2019-02-04T07:21:06.819Z,2.16
2019-02-04T07:22:12.765Z,2.19
2019-02-04T07:23:18.800Z,2.21
2019-02-04T07:24:25.050Z,2.22
2019-02-04T07:25:31.214Z,2.21
2019-02-04T07:26:37.143Z,2.25
2019-02-04T07:27:43.193Z,2.32
2019-02-04T07:28:48.941Z,2.33
2019-02-04T07:29:56.134Z,2.35
2019-02-04T07:31:02.581Z,2.34
2019-02-04T07:32:09.772Z,2.35
2019-02-04T07:33:17.649Z,2.35
2019-02-04T07:34:25.755Z,2.35
2019-02-04T07:35:32.596Z,2.31
2019-02-04T07:36:40.406Z,2.31
2019-02-04T07:37:46.989Z,2.27
2019-02-04T07:38:54.475Z,2.29
2019-02-04T07:40:00.685Z,2.28
2019-02-04T07:41:06.536Z,2.25
2019-02-04T07:42:12.481Z,2.22
2019-02-04T07:43:18.767Z,2.21
2019-02-04T07:44:24.878Z,2.25
2019-02-04T07:45:31.018Z,2.21
2019-02-04T07:46:37.076Z,2.19
2019-02-04T07:47:42.816Z,2.24
2019-02-04T07:48:49.778Z,2.24
2019-02-04T07:49:55.906Z,2.23
2019-02-04T07:51:03.566Z,2.29
2019-02-04T07:52:09.766Z,2.31
2019-02-04T07:53:17.356Z,2.33
2019-02-04T07:54:24.116Z,2.37
2019-02-04T07:55:31.465Z,2.41
2019-02-04T07:56:41.307Z,2.45
2019-02-04T07:57:48.766Z,2.46
2019-02-04T07:58:55.166Z,2.45
2019-02-04T08:00:02.329Z,2.47
2019-02-04T08:01:09.240Z,2.51
2019-02-04T08:02:16.045Z,2.56
2019-02-04T08:03:22.405Z,2.54
2019-02-04T08:04:30.314Z,2.55
2019-02-04T08:05:37.836Z,2.49
2019-02-04T08:06:46.234Z,2.49
2019-02-04T08:07:52.928Z,2.49
2019-02-04T08:08:59.390Z,2.50
2019-02-04T08:10:08.265Z,2.47
2019-02-04T08:11:14.887Z,2.50
2019-02-04T08:12:23.314Z,2.52
2019-02-04T08:13:29.983Z,2.55
2019-02-04T08:14:36.194Z,2.52
2019-02-04T08:15:43.063Z,2.52
2019-02-04T08:16:49.345Z,2.54
2019-02-04T08:17:56.991Z,2.53
2019-02-04T08:19:02.899Z,2.56
2019-02-04T08:20:10.628Z,2.55
2019-02-04T08:21:18.217Z,2.57
2019-02-04T08:22:24.307Z,2.61
2019-02-04T08:23:30.141Z,2.62
2019-02-04T08:24:36.417Z,2.62
2019-02-04T08:25:42.934Z,2.59
2019-02-04T08:26:48.823Z,2.62
2019-02-04T08:27:55.247Z,2.61
2019-02-04T08:29:01.720Z,2.63
2019-02-04T08:30:30.449Z,2.61
2019-02-04T08:31:37.618Z,2.64
2019-02-04T08:32:44.056Z,2.70
2019-02-04T08:33:50.681Z,2.74
2019-02-04T08:34:57.483Z,2.74
2019-02-04T08:36:05.334Z,2.73
2019-02-04T08:37:11.480Z,2.78
2019-02-04T08:38:20.381Z,2.78
2019-02-04T08:39:27.107Z,2.79
2019-02-04T08:40:34.002Z,2.87
2019-02-04T08:41:40.832Z,2.93
2019-02-04T08:42:47.237Z,2.93
2019-02-04T08:43:55.106Z,2.99
2019-02-04T08:45:02.685Z,2.99
2019-02-04T08:46:10.076Z,3.01
2019-02-04T08:47:22.715Z,3.01
2019-02-04T08:48:23.838Z,3.01
2019-02-04T08:49:29.837Z,3.01
2019-02-04T08:50:35.820Z,3.05
2019-02-04T08:51:41.581Z,3.09
2019-02-04T08:52:47.901Z,3.08
2019-02-04T08:53:53.808Z,3.12
2019-02-04T08:55:00.015Z,3.15
2019-02-04T08:56:06.006Z,3.20
2019-02-04T08:57:11.988Z,3.27
2019-02-04T08:58:18.109Z,3.32
2019-02-04T08:59:24.128Z,3.34
2019-02-04T09:00:30.811Z,3.37
2019-02-04T09:01:37.129Z,3.45
2019-02-04T09:02:44.333Z,3.44
2019-02-04T09:03:51.714Z,3.49
2019-02-04T09:04:58.374Z,3.53
2019-02-04T09:06:05.118Z,3.52
2019-02-04T09:07:12.263Z,3.54
2019-02-04T09:08:18.560Z,3.53
2019-02-04T09:09:25.217Z,3.57
2019-02-04T09:10:33.566Z,3.60
2019-02-04T09:11:39.667Z,3.61
2019-02-04T09:12:46.025Z,3.74
2019-02-04T09:13:53.055Z,3.79
2019-02-04T09:14:59.764Z,3.75
2019-02-04T09:16:06.206Z,3.78
2019-02-04T09:17:12.367Z,3.78
2019-02-04T09:18:18.213Z,3.76
2019-02-04T09:19:24.185Z,3.70
2019-02-04T09:20:29.906Z,3.59
2019-02-04T09:21:35.948Z,3.49
2019-02-04T09:22:41.903Z,3.38
2019-02-04T09:23:49.394Z,3.33
2019-02-04T09:24:55.217Z,3.29
2019-02-04T09:26:01.066Z,3.30
2019-02-04T09:27:07.106Z,3.33
2019-02-04T09:28:14.674Z,3.32
2019-02-04T09:29:21.726Z,3.29
2019-02-04T09:30:30.537Z,3.35
2019-02-04T09:31:36.627Z,3.43
2019-02-04T09:32:43.574Z,3.52
2019-02-04T09:33:50.337Z,3.55
2019-02-04T09:34:56.793Z,3.47
2019-02-04T09:36:04.137Z,3.35
2019-02-04T09:37:10.229Z,3.25
2019-02-04T09:38:16.804Z,3.17
2019-02-04T09:39:24.076Z,3.17
2019-02-04T09:40:39.754Z,3.14
2019-02-04T09:41:45.625Z,3.12
2019-02-04T09:42:53.139Z,3.09
2019-02-04T09:43:59.134Z,3.12
2019-02-04T09:45:07.663Z,3.10
2019-02-04T09:46:13.487Z,3.11
2019-02-04T09:47:19.324Z,3.11
2019-02-04T09:48:26.193Z,3.16
2019-02-04T09:49:31.933Z,3.26
2019-02-04T09:50:43.025Z,3.27
2019-02-04T09:51:51.007Z,3.31
2019-02-04T09:53:01.213Z,3.42
2019-02-04T09:54:07.783Z,3.54
2019-02-04T09:55:20.943Z,3.69
2019-02-04T09:56:27.255Z,3.77
2019-02-04T09:57:36.076Z,3.78
2019-02-04T09:58:44.304Z,3.83
2019-02-04T09:59:51.397Z,3.89
2019-02-04T10:00:57.603Z,3.88
2019-02-04T10:02:04.354Z,3.92
2019-02-04T10:03:11.429Z,3.91
2019-02-04T10:04:17.843Z,3.97
2019-02-04T10:05:23.727Z,3.97
2019-02-04T10:06:30.804Z,3.97
2019-02-04T10:07:39.454Z,3.99
2019-02-04T10:08:52.844Z,3.97
2019-02-04T10:10:05.563Z,3.86
2019-02-04T10:11:20.047Z,3.82
2019-02-04T10:12:26.703Z,3.78
2019-02-04T10:13:37.416Z,3.84
2019-02-04T10:14:43.777Z,3.85
2019-02-04T10:15:55.460Z,3.77
2019-02-04T10:17:17.843Z,3.64
2019-02-04T10:18:31.277Z,3.62
2019-02-04T10:19:49.950Z,3.63
2019-02-04T10:20:51.223Z,3.61
2019-02-04T10:21:57.586Z,3.66
2019-02-04T10:23:13.153Z,3.70
2019-02-04T10:24:29.877Z,3.83
2019-02-04T10:25:52.464Z,3.91
2019-02-04T10:27:07.683Z,4.06
2019-02-04T10:28:15.850Z,4.06
2019-02-04T10:29:21.577Z,4.00
2019-02-04T10:30:29.823Z,4.10
2019-02-04T10:31:35.686Z,4.14
2019-02-04T10:32:44.294Z,4.18
2019-02-04T10:33:49.041Z,4.21
2019-02-04T10:34:55.027Z,4.34
2019-02-04T10:36:01.038Z,4.36
2019-02-04T10:37:07.154Z,4.40
2019-02-04T10:38:16.219Z,4.40
2019-02-04T10:39:20.983Z,4.45
2019-02-04T10:40:29.526Z,4.46
2019-02-04T10:41:35.239Z,4.43
2019-02-04T10:42:41.281Z,4.41
2019-02-04T10:43:47.129Z,4.35
2019-02-04T10:44:53.394Z,4.34
2019-02-04T10:45:59.227Z,4.43
2019-02-04T10:47:05.459Z,4.34
2019-02-04T10:48:11.245Z,4.21
2019-02-04T10:49:17.054Z,4.16
2019-02-04T10:50:45.653Z,4.13
2019-02-04T10:51:45.589Z,4.15
2019-02-04T10:52:51.488Z,4.11
2019-02-04T10:53:57.223Z,4.04
2019-02-04T10:55:03.002Z,4.02
2019-02-04T10:56:09.023Z,4.05
2019-02-04T10:57:14.865Z,4.07
2019-02-04T10:58:20.587Z,4.00
2019-02-04T10:59:26.652Z,3.98
2019-02-04T11:00:35.636Z,3.90
2019-02-04T11:01:41.600Z,3.92
2019-02-04T11:02:47.446Z,3.96
2019-02-04T11:03:53.184Z,4.02
2019-02-04T11:04:59.187Z,4.02
2019-02-04T11:06:04.883Z,3.92
2019-02-04T11:07:10.627Z,3.81
2019-02-04T11:08:16.486Z,3.69
2019-02-04T11:09:22.272Z,3.55
2019-02-04T11:10:33.863Z,3.42
2019-02-04T11:11:39.752Z,3.33
2019-02-04T11:12:46.251Z,3.22
2019-02-04T11:13:52.040Z,3.10
2019-02-04T11:14:57.883Z,3.03
2019-02-04T11:16:05.593Z,2.99
2019-02-04T11:17:11.839Z,2.95
2019-02-04T11:18:18.096Z,2.90
2019-02-04T11:19:23.819Z,2.88
2019-02-04T11:20:32.203Z,2.86
2019-02-04T11:21:37.851Z,2.84
2019-02-04T11:22:43.742Z,2.83
2019-02-04T11:23:49.643Z,2.79
2019-02-04T11:24:55.381Z,2.78
2019-02-04T11:26:02.682Z,2.77
2019-02-04T11:27:08.618Z,2.73
2019-02-04T11:28:14.736Z,2.71
2019-02-04T11:29:29.604Z,2.68
2019-02-04T11:30:55.415Z,2.67
2019-02-04T11:32:16.217Z,2.63
2019-02-04T11:33:34.792Z,2.61
2019-02-04T11:34:43.087Z,2.64
2019-02-04T11:35:49.617Z,2.70
2019-02-04T11:36:56.871Z,2.82
2019-02-04T11:38:12.334Z,2.92
2019-02-04T11:39:23.872Z,3.07
2019-02-04T11:40:40.255Z,3.13
2019-02-04T11:41:46.985Z,3.18
2019-02-04T11:42:54.735Z,3.18
2019-02-04T11:44:03.115Z,3.13
2019-02-04T11:45:11.043Z,3.11
2019-02-04T11:46:17.467Z,3.10
2019-02-04T11:47:31.247Z,3.07
2019-02-04T11:48:38.251Z,3.04
2019-02-04T11:49:44.074Z,3.02
2019-02-04T11:50:51.033Z,3.08
2019-02-04T11:51:56.984Z,3.10
2019-02-04T11:53:04.551Z,3.12
2019-02-04T11:54:12.064Z,3.20
2019-02-04T11:55:20.354Z,3.28
2019-02-04T11:56:26.449Z,3.35
2019-02-04T11:57:33.376Z,3.36
2019-02-04T11:58:40.904Z,3.34
2019-02-04T11:59:46.870Z,3.34
2019-02-04T12:00:53.884Z,3.36
2019-02-04T12:01:59.705Z,3.33
2019-02-04T12:03:08.478Z,3.29
2019-02-04T12:04:16.004Z,3.25
2019-02-04T12:05:24.245Z,3.26
2019-02-04T12:06:32.037Z,3.28
2019-02-04T12:07:38.217Z,3.33
2019-02-04T12:08:47.693Z,3.31
2019-02-04T12:09:56.144Z,3.34
2019-02-04T12:11:05.887Z,3.36
2019-02-04T12:12:12.186Z,3.29
2019-02-04T12:13:17.854Z,3.33
2019-02-04T12:14:24.684Z,3.32
2019-02-04T12:15:31.507Z,3.32
2019-02-04T12:16:38.517Z,3.30
2019-02-04T12:17:44.457Z,3.28
2019-02-04T12:18:50.303Z,3.29
2019-02-04T12:19:56.059Z,3.31
2019-02-04T12:21:03.231Z,3.31
2019-02-04T12:22:09.365Z,3.31
2019-02-04T12:23:15.927Z,3.31
2019-02-04T12:24:22.455Z,3.26
2019-02-04T12:25:31.207Z,3.19
2019-02-04T12:26:38.263Z,3.13
2019-02-04T12:27:45.443Z,3.11
2019-02-04T12:28:53.148Z,3.04
2019-02-04T12:30:00.146Z,2.98
2019-02-04T12:31:10.248Z,2.94
2019-02-04T12:32:19.339Z,2.91
2019-02-04T12:33:27.097Z,2.88
2019-02-04T12:34:33.310Z,2.89
2019-02-04T12:35:40.789Z,2.93
2019-02-04T12:36:48.668Z,2.95
2019-02-04T12:37:55.681Z,2.99
2019-02-04T12:39:02.211Z,3.03
2019-02-04T12:40:16.047Z,3.07
2019-02-04T12:41:22.913Z,3.15
2019-02-04T12:42:29.347Z,3.24
2019-02-04T12:43:36.614Z,3.40
2019-02-04T12:44:44.783Z,3.56
2019-02-04T12:45:51.784Z,3.68
2019-02-04T12:46:58.244Z,3.82
2019-02-04T12:48:05.667Z,3.95
2019-02-04T12:49:11.884Z,4.03
2019-02-04T12:50:19.998Z,4.06
2019-02-04T12:51:33.992Z,4.13
2019-02-04T12:52:39.964Z,4.25
2019-02-04T12:53:47.096Z,4.30
2019-02-04T12:54:54.557Z,4.35
2019-02-04T12:56:00.375Z,4.41
2019-02-04T12:57:09.285Z,4.49
2019-02-04T12:58:15.026Z,4.56
2019-02-04T12:59:28.227Z,4.53
2019-02-04T13:00:35.316Z,4.62
2019-02-04T13:01:42.984Z,4.71
2019-02-04T13:02:48.756Z,4.79
2019-02-04T13:03:54.484Z,4.80
2019-02-04T13:05:02.169Z,4.86
2019-02-04T13:06:08.852Z,4.93
2019-02-04T13:07:15.136Z,4.94
2019-02-04T13:08:21.645Z,5.01
2019-02-04T13:09:27.515Z,5.05
2019-02-04T13:10:33.330Z,5.07
2019-02-04T13:11:40.544Z,5.09
2019-02-04T13:12:47.338Z,5.08
2019-02-04T13:13:53.117Z,5.07
2019-02-04T13:15:00.897Z,4.99
2019-02-04T13:16:07.055Z,4.97
2019-02-04T13:17:12.907Z,5.07
2019-02-04T13:18:21.805Z,5.07
2019-02-04T13:19:29.111Z,5.06
2019-02-04T13:20:35.067Z,5.03
2019-02-04T13:21:45.432Z,5.07
2019-02-04T13:22:50.006Z,5.02
2019-02-04T13:23:59.437Z,5.01
2019-02-04T13:25:09.275Z,5.05
2019-02-04T13:26:15.315Z,5.00
2019-02-04T13:27:22.409Z,5.02
2019-02-04T13:28:28.657Z,5.03
2019-02-04T13:29:34.477Z,5.04
2019-02-04T13:30:41.044Z,4.94
2019-02-04T13:31:49.281Z,4.89
2019-02-04T13:32:55.600Z,4.87
2019-02-04T13:34:01.649Z,4.88
2019-02-04T13:35:09.893Z,4.93
2019-02-04T13:36:16.755Z,4.93
2019-02-04T13:37:23.404Z,4.87
2019-02-04T13:38:29.828Z,4.84
2019-02-04T13:39:42.706Z,4.81
2019-02-04T13:40:49.238Z,4.74
2019-02-04T13:41:57.725Z,4.71
2019-02-04T13:43:05.911Z,4.71
2019-02-04T13:44:12.179Z,4.73
2019-02-04T13:45:20.917Z,4.77
2019-02-04T13:46:27.714Z,4.75
2019-02-04T13:47:35.654Z,4.81
2019-02-04T13:48:42.295Z,4.83
2019-02-04T13:49:49.114Z,4.81
2019-02-04T13:50:55.221Z,4.86
2019-02-04T13:52:01.134Z,4.90
2019-02-04T13:53:08.962Z,4.95
2019-02-04T13:54:14.797Z,4.99
2019-02-04T13:55:33.544Z,4.98
2019-02-04T13:56:41.094Z,4.94
2019-02-04T13:57:47.270Z,4.88
2019-02-04T13:58:55.434Z,4.85
2019-02-04T14:00:02.955Z,4.81
2019-02-04T14:01:09.614Z,4.77
2019-02-04T14:02:16.874Z,4.77
2019-02-04T14:03:25.093Z,4.72
2019-02-04T14:04:37.193Z,4.73
2019-02-04T14:05:45.054Z,4.74
2019-02-04T14:06:56.946Z,4.71
2019-02-04T14:08:07.047Z,4.70
2019-02-04T14:09:17.465Z,4.67
2019-02-04T14:10:33.023Z,4.63
2019-02-04T14:11:40.974Z,4.54
2019-02-04T14:12:48.847Z,4.55
2019-02-04T14:13:55.125Z,4.53
2019-02-04T14:15:04.889Z,4.47
2019-02-04T14:16:14.095Z,4.55
2019-02-04T14:17:25.575Z,4.52
2019-02-04T14:18:31.787Z,4.45
2019-02-04T14:19:40.134Z,4.45
2019-02-04T14:20:46.054Z,4.47
2019-02-04T14:21:51.994Z,4.48
2019-02-04T14:22:59.506Z,4.52
2019-02-04T14:24:08.928Z,4.52
2019-02-04T14:25:15.006Z,4.49
2019-02-04T14:26:21.333Z,4.51
2019-02-04T14:27:28.853Z,4.52
2019-02-04T14:28:38.450Z,4.52
2019-02-04T14:29:44.955Z,4.55
2019-02-04T14:30:52.807Z,4.59
2019-02-04T14:32:02.441Z,4.63
2019-02-04T14:33:11.928Z,4.60
2019-02-04T14:34:18.573Z,4.55
2019-02-04T14:35:24.898Z,4.61
2019-02-04T14:36:34.682Z,4.53
2019-02-04T14:37:45.086Z,4.47
2019-02-04T14:38:52.155Z,4.41
2019-02-04T14:40:00.294Z,4.36
2019-02-04T14:41:08.075Z,4.34
2019-02-04T14:42:17.134Z,4.26
2019-02-04T14:43:30.919Z,4.21
2019-02-04T14:44:41.994Z,4.19
2019-02-04T14:46:25.805Z,4.13
2019-02-04T14:47:38.042Z,4.07
2019-02-04T14:49:09.697Z,4.03
2019-02-04T14:50:41.974Z,4.00
2019-02-04T14:52:00.035Z,4.00
2019-02-04T14:53:13.427Z,3.99
2019-02-04T14:54:58.814Z,3.95
2019-02-04T14:56:44.081Z,3.90
2019-02-04T14:58:16.479Z,3.84